Time;durP1;ratioP1;P1;durP2;ratioP2;P2;SDS_P1;SDS_P2;PMS_P1;PMS_P2;Temp;Humidity;BMP_temperature;BMP_pressure;BME280_temperature;BME280_humidity;BME280_pressure;Samples;Min_cycle;Max_cycle;Signal;HPM_P1;HPM_P2
2021/10/05 00:02:23;;;;;;;6.93;6.37;;;;;;;;;;5133161;27;20663;-83
2021/10/05 00:05:09;;;;;;;8.43;6.30;;;;;;;;;;5133070;27;20666;-83
2021/10/05 00:07:54;;;;;;;8.33;6.20;;;;;;;;;;5133118;27;20234;-83
2021/10/05 00:10:41;;;;;;;6.43;5.93;;;;;;;;;;5133149;27;20700;-83
2021/10/05 00:13:26;;;;;;;6.67;6.03;;;;;;;;;;5133349;27;20738;-85
2021/10/05 00:16:11;;;;;;;7.47;6.37;;;;;;;;;;5133033;27;20192;-83
2021/10/05 00:18:56;;;;;;;8.03;7.23;;;;;;;;;;5133008;27;20187;-83
2021/10/05 00:21:41;;;;;;;7.50;6.80;;;;;;;;;;5133032;27;20191;-83
2021/10/05 00:24:26;;;;;;;7.70;7.13;;;;;;;;;;5132811;27;20314;-84
2021/10/05 00:27:13;;;;;;;7.73;7.13;;;;;;;;;;5132786;27;20261;-83
2021/10/05 00:29:58;;;;;;;7.57;7.07;;;;;;;;;;5132744;27;20237;-83
2021/10/05 00:32:43;;;;;;;8.03;6.87;;;;;;;;;;5132399;27;20183;-82
2021/10/05 00:35:29;;;;;;;7.20;6.60;;;;;;;;;;5132696;27;20229;-83
2021/10/05 00:38:14;;;;;;;8.10;7.33;;;;;;;;;;5132573;27;20187;-83
2021/10/05 00:40:59;;;;;;;7.77;7.00;;;;;;;;;;5132549;27;20238;-83
2021/10/05 00:43:45;;;;;;;7.60;6.93;;;;;;;;;;5132389;27;20191;-83
2021/10/05 00:46:33;;;;;;;7.47;6.87;;;;;;;;;;5132332;27;20199;-83
2021/10/05 00:49:18;;;;;;;7.37;6.80;;;;;;;;;;5132367;27;20191;-83
2021/10/05 00:52:04;;;;;;;7.27;6.47;;;;;;;;;;5132576;27;20274;-83
2021/10/05 00:54:49;;;;;;;7.27;6.77;;;;;;;;;;5132310;27;20211;-83
2021/10/05 00:57:34;;;;;;;6.77;6.03;;;;;;;;;;5132136;27;20237;-83
2021/10/05 01:00:22;;;;;;;7.30;6.80;;;;;;;;;;5132349;27;20655;-83
2021/10/05 01:03:07;;;;;;;7.13;6.53;;;;;;;;;;5132305;27;20261;-83
2021/10/05 01:05:52;;;;;;;7.83;6.90;;;;;;;;;;5132217;27;20175;-83
2021/10/05 01:08:37;;;;;;;7.57;6.97;;;;;;;;;;5132338;27;20272;-83
2021/10/05 01:11:23;;;;;;;7.77;7.20;;;;;;;;;;5132319;27;20180;-83
2021/10/05 01:14:09;;;;;;;7.93;7.00;;;;;;;;;;5132610;28;20188;-83
2021/10/05 01:16:57;;;;;;;9.37;7.10;;;;;;;;;;5132567;28;20663;-83
2021/10/05 01:19:42;;;;;;;7.50;6.90;;;;;;;;;;5132490;28;20191;-83
2021/10/05 01:22:28;;;;;;;7.60;7.10;;;;;;;;;;5127351;28;20240;-84
2021/10/05 01:25:15;;;;;;;8.07;7.37;;;;;;;;;;5111552;28;20652;-83
2021/10/05 01:28:00;;;;;;;8.10;7.40;;;;;;;;;;5111658;28;20207;-83
2021/10/05 01:30:45;;;;;;;7.40;6.80;;;;;;;;;;5111694;28;20180;-83
2021/10/05 01:33:30;;;;;;;8.40;7.80;;;;;;;;;;5111662;28;20254;-84
2021/10/05 01:36:15;;;;;;;8.47;7.77;;;;;;;;;;5111663;28;20184;-83
2021/10/05 01:39:02;;;;;;;8.90;8.10;;;;;;;;;;5111422;28;20270;-83
2021/10/05 01:41:47;;;;;;;8.40;7.77;;;;;;;;;;5111958;28;20569;-84
2021/10/05 01:44:33;;;;;;;9.27;7.77;;;;;;;;;;5111470;28;20187;-83
2021/10/05 01:47:18;;;;;;;10.03;9.03;;;;;;;;;;5111382;28;20204;-83
2021/10/05 01:50:04;;;;;;;9.27;8.40;;;;;;;;;;5111758;28;20227;-83
2021/10/05 01:52:49;;;;;;;9.27;8.23;;;;;;;;;;5111171;28;20266;-83
2021/10/05 01:55:36;;;;;;;10.53;8.30;;;;;;;;;;5111440;28;20189;-83
2021/10/05 01:58:21;;;;;;;13.17;8.33;;;;;;;;;;5111553;28;20739;-83
2021/10/05 02:01:07;;;;;;;9.80;8.80;;;;;;;;;;5112314;28;20185;-84
2021/10/05 02:03:52;;;;;;;9.80;8.90;;;;;;;;;;5115325;28;20269;-83
2021/10/05 02:06:37;;;;;;;10.37;9.40;;;;;;;;;;5114884;28;20215;-83
2021/10/05 02:09:22;;;;;;;9.80;9.10;;;;;;;;;;5115121;28;20629;-83
2021/10/05 02:12:09;;;;;;;10.23;9.17;;;;;;;;;;5115127;28;20548;-84
2021/10/05 02:14:55;;;;;;;16.23;9.67;;;;;;;;;;5114956;28;20185;-83
2021/10/05 02:17:40;;;;;;;10.73;9.73;;;;;;;;;;5114871;28;20184;-83
2021/10/05 02:20:25;;;;;;;11.50;9.83;;;;;;;;;;5115051;28;20242;-83
2021/10/05 02:23:10;;;;;;;12.27;10.57;;;;;;;;;;5125441;27;20312;-84
2021/10/05 02:25:55;;;;;;;11.57;10.57;;;;;;;;;;5135310;27;20192;-83
2021/10/05 02:28:41;;;;;;;10.80;9.73;;;;;;;;;;5134971;27;20551;-84
2021/10/05 02:31:26;;;;;;;11.77;9.70;;;;;;;;;;5135204;27;20226;-85
2021/10/05 02:34:13;;;;;;;10.90;10.07;;;;;;;;;;5135090;27;20527;-83
2021/10/05 02:36:58;;;;;;;11.03;9.93;;;;;;;;;;5135358;27;20539;-84
2021/10/05 02:39:43;;;;;;;10.93;9.97;;;;;;;;;;5135185;27;20186;-83
2021/10/05 02:42:28;;;;;;;10.60;9.60;;;;;;;;;;5135464;27;20203;-83
2021/10/05 02:45:15;;;;;;;11.37;9.30;;;;;;;;;;5134900;27;20186;-83
2021/10/05 02:48:00;;;;;;;11.23;10.23;;;;;;;;;;5134786;27;20326;-83
2021/10/05 02:50:45;;;;;;;11.23;9.70;;;;;;;;;;5135195;27;20234;-83
2021/10/05 02:53:30;;;;;;;11.40;10.10;;;;;;;;;;5135058;27;20203;-83
2021/10/05 02:56:15;;;;;;;11.43;10.50;;;;;;;;;;5135075;27;20180;-83
2021/10/05 02:59:00;;;;;;;10.87;9.97;;;;;;;;;;5134740;27;20203;-83
2021/10/05 03:01:47;;;;;;;10.50;9.70;;;;;;;;;;5134663;27;20196;-83
2021/10/05 03:04:32;;;;;;;11.30;10.10;;;;;;;;;;5134472;27;20638;-84
2021/10/05 03:07:17;;;;;;;10.67;9.77;;;;;;;;;;5134440;27;20825;-84
2021/10/05 03:10:03;;;;;;;10.30;9.37;;;;;;;;;;5134618;27;20184;-83
2021/10/05 03:12:48;;;;;;;10.57;9.57;;;;;;;;;;5133237;27;20191;-82
2021/10/05 03:15:33;;;;;;;11.13;10.03;;;;;;;;;;5134793;27;20188;-82
2021/10/05 03:18:19;;;;;;;11.27;10.13;;;;;;;;;;5134546;27;20314;-83
2021/10/05 03:21:04;;;;;;;10.90;9.90;;;;;;;;;;5134419;27;20182;-83
2021/10/05 03:23:50;;;;;;;11.50;10.33;;;;;;;;;;5134044;27;20269;-83
2021/10/05 03:26:35;;;;;;;10.97;9.97;;;;;;;;;;5134433;27;20188;-83
2021/10/05 03:29:20;;;;;;;11.43;10.43;;;;;;;;;;5134266;27;20191;-83
2021/10/05 03:32:05;;;;;;;10.83;9.60;;;;;;;;;;5134457;27;20310;-82
2021/10/05 03:34:52;;;;;;;10.40;9.37;;;;;;;;;;5134006;27;20182;-81
2021/10/05 03:37:37;;;;;;;10.80;9.80;;;;;;;;;;5134244;27;20184;-83
2021/10/05 03:40:22;;;;;;;10.07;9.17;;;;;;;;;;5134227;27;20180;-83
2021/10/05 03:43:07;;;;;;;11.10;10.10;;;;;;;;;;5134021;27;20659;-82
2021/10/05 03:45:52;;;;;;;12.13;10.87;;;;;;;;;;5133711;27;20558;-84
2021/10/05 03:48:37;;;;;;;11.20;10.30;;;;;;;;;;5133309;27;20211;-85
2021/10/05 03:51:24;;;;;;;11.80;10.77;;;;;;;;;;5133748;27;20698;-82
2021/10/05 03:54:09;;;;;;;10.73;9.63;;;;;;;;;;5133676;27;20192;-81
2021/10/05 03:56:54;;;;;;;10.60;9.80;;;;;;;;;;5133779;27;20226;-81
2021/10/05 03:59:39;;;;;;;9.83;9.03;;;;;;;;;;5133930;27;20276;-81
2021/10/05 04:02:24;;;;;;;11.37;9.60;;;;;;;;;;5133645;27;20191;-82
2021/10/05 04:05:10;;;;;;;9.90;9.10;;;;;;;;;;5133790;27;20210;-80
2021/10/05 04:07:56;;;;;;;11.30;10.30;;;;;;;;;;5133436;27;20207;-83
2021/10/05 04:10:41;;;;;;;10.70;9.67;;;;;;;;;;5133652;27;20184;-82
2021/10/05 04:13:26;;;;;;;10.07;9.20;;;;;;;;;;5133474;27;20209;-85
2021/10/05 04:16:11;;;;;;;10.10;9.10;;;;;;;;;;5133102;27;20215;-80
2021/10/05 04:18:56;;;;;;;9.77;9.07;;;;;;;;;;5133322;27;20217;-82
2021/10/05 04:21:41;;;;;;;9.03;8.17;;;;;;;;;;5127333;27;20318;-83
2021/10/05 04:24:27;;;;;;;9.60;8.90;;;;;;;;;;5112592;28;20193;-80
2021/10/05 04:27:12;;;;;;;9.73;8.83;;;;;;;;;;5113178;28;20176;-83
2021/10/05 04:29:57;;;;;;;9.63;8.80;;;;;;;;;;5112628;28;20566;-81
2021/10/05 04:32:42;;;;;;;9.10;8.40;;;;;;;;;;5112895;28;20274;-80
2021/10/05 04:35:28;;;;;;;9.37;8.40;;;;;;;;;;5120211;27;20273;-79
2021/10/05 04:38:13;;;;;;;9.73;8.83;;;;;;;;;;5132245;27;20187;-80
2021/10/05 04:40:59;;;;;;;8.70;8.00;;;;;;;;;;5127252;27;20339;-80
2021/10/05 04:43:44;;;;;;;9.60;8.47;;;;;;;;;;5112024;28;20810;-81
2021/10/05 04:46:29;;;;;;;9.13;8.43;;;;;;;;;;5112500;28;20548;-81
2021/10/05 04:49:14;;;;;;;9.10;8.40;;;;;;;;;;5112357;28;20213;-81
2021/10/05 04:51:59;;;;;;;8.83;8.13;;;;;;;;;;5112439;28;20249;-80
2021/10/05 04:54:44;;;;;;;9.23;8.33;;;;;;;;;;5111896;28;20196;-80
2021/10/05 04:57:30;;;;;;;9.80;8.90;;;;;;;;;;5112161;28;20751;-80
2021/10/05 05:00:15;;;;;;;11.63;8.67;;;;;;;;;;5111955;28;20702;-81
2021/10/05 05:03:01;;;;;;;9.30;8.47;;;;;;;;;;5111797;28;20327;-81
2021/10/05 05:05:46;;;;;;;9.13;8.33;;;;;;;;;;5111940;28;20279;-80
2021/10/05 05:08:31;;;;;;;9.10;8.30;;;;;;;;;;5111658;28;20702;-82
2021/10/05 05:11:16;;;;;;;9.33;8.53;;;;;;;;;;5112164;28;20881;-80
2021/10/05 05:14:07;;;;;;;9.17;7.60;;;;;;;;;;5112030;28;20187;-82
2021/10/05 05:16:52;;;;;;;11.30;8.50;;;;;;;;;;5111945;28;20648;-80
2021/10/05 05:19:37;;;;;;;9.00;8.30;;;;;;;;;;5111802;28;20295;-80
2021/10/05 05:22:22;;;;;;;9.47;8.53;;;;;;;;;;5111587;28;20301;-79
2021/10/05 05:25:07;;;;;;;9.40;8.60;;;;;;;;;;5111879;28;20193;-84
2021/10/05 05:27:52;;;;;;;9.33;8.53;;;;;;;;;;5111752;28;20566;-80
2021/10/05 05:30:38;;;;;;;9.13;8.33;;;;;;;;;;5111681;28;20310;-79
2021/10/05 05:33:23;;;;;;;10.40;9.40;;;;;;;;;;5111687;28;20246;-80
2021/10/05 05:36:08;;;;;;;10.23;9.37;;;;;;;;;;5112665;28;20250;-80
2021/10/05 05:38:53;;;;;;;10.60;9.70;;;;;;;;;;5115854;28;20184;-80
2021/10/05 05:41:39;;;;;;;11.70;10.70;;;;;;;;;;5115942;28;20280;-80
2021/10/05 05:44:23;;;;;;;10.73;9.77;;;;;;;;;;5115707;28;20651;-81
2021/10/05 05:47:10;;;;;;;12.40;11.30;;;;;;;;;;5115374;28;20266;-80
2021/10/05 05:49:55;;;;;;;11.50;10.60;;;;;;;;;;5115329;28;20714;-80
2021/10/05 05:52:40;;;;;;;12.13;11.13;;;;;;;;;;5115369;28;20691;-80
2021/10/05 05:55:25;;;;;;;11.73;10.73;;;;;;;;;;5115083;28;20689;-80
2021/10/05 05:58:10;;;;;;;12.37;11.20;;;;;;;;;;5115172;28;20667;-80
2021/10/05 06:00:55;;;;;;;12.60;11.37;;;;;;;;;;5115427;28;20586;-80
2021/10/05 06:03:42;;;;;;;12.07;11.07;;;;;;;;;;5115448;28;20184;-80
2021/10/05 06:06:29;;;;;;;12.10;10.73;;;;;;;;;;5115126;28;20193;-80
2021/10/05 06:09:16;;;;;;;12.80;10.97;;;;;;;;;;5115100;28;20293;-80
2021/10/05 06:12:03;;;;;;;12.20;11.00;;;;;;;;;;5115010;28;20702;-80
2021/10/05 06:14:49;;;;;;;13.00;11.43;;;;;;;;;;5115207;28;20252;-81
2021/10/05 06:17:36;;;;;;;12.40;11.20;;;;;;;;;;5115163;28;20325;-80
2021/10/05 06:20:23;;;;;;;13.57;11.47;;;;;;;;;;5114988;28;20176;-81
2021/10/05 06:26:40;;;;;;;11.87;10.80;;;;;;;;;;5051641;28;20222;-81
2021/10/05 06:29:25;;;;;;;12.47;11.27;;;;;;;;;;5051652;28;20261;-81
2021/10/05 06:32:10;;;;;;;12.43;11.20;;;;;;;;;;5099984;28;20208;-80
2021/10/05 06:34:55;;;;;;;12.60;11.37;;;;;;;;;;5114587;28;20193;-80
2021/10/05 06:37:41;;;;;;;12.43;11.23;;;;;;;;;;5114533;28;20640;-80
2021/10/05 06:40:29;;;;;;;11.50;10.40;;;;;;;;;;5114417;28;20176;-80
2021/10/05 06:43:14;;;;;;;10.83;9.73;;;;;;;;;;5114895;28;20184;-81
2021/10/05 06:46:03;;;;;;;11.23;10.03;;;;;;;;;;5114335;28;20223;-81
2021/10/05 06:48:48;;;;;;;9.43;8.63;;;;;;;;;;5113924;28;20204;-80
2021/10/05 06:51:33;;;;;;;10.30;9.30;;;;;;;;;;5114275;28;20757;-80
2021/10/05 06:54:20;;;;;;;10.43;9.47;;;;;;;;;;5114162;28;20188;-80
2021/10/05 06:57:05;;;;;;;9.07;8.20;;;;;;;;;;5114548;28;20254;-81
2021/10/05 06:59:50;;;;;;;8.93;8.20;;;;;;;;;;5114500;28;20222;-81
2021/10/05 07:02:35;;;;;;;8.63;7.80;;;;;;;;;;5113961;28;20663;-81
2021/10/05 07:05:21;;;;;;;7.60;6.97;;;;;;;;;;5114049;28;20227;-80
2021/10/05 07:08:06;;;;;;;10.50;6.57;;;;;;;;;;5113946;28;20188;-80
2021/10/05 07:10:53;;;;;;;7.20;6.50;;;;;;;;;;5113849;28;20187;-80
2021/10/05 07:13:38;;;;;;;8.63;7.33;;;;;;;;;;5113876;28;20315;-80
2021/10/05 07:16:23;;;;;;;7.57;6.90;;;;;;;;;;5113652;28;20651;-80
2021/10/05 07:19:08;;;;;;;8.57;7.83;;;;;;;;;;5113712;28;20546;-80
2021/10/05 07:21:53;;;;;;;8.13;6.83;;;;;;;;;;5113735;28;20192;-80
2021/10/05 07:24:38;;;;;;;9.00;8.10;;;;;;;;;;5113395;28;20200;-81
2021/10/05 07:27:25;;;;;;;10.93;8.60;;;;;;;;;;5113554;28;20192;-80
2021/10/05 07:30:10;;;;;;;9.60;8.57;;;;;;;;;;5113631;28;20695;-81
2021/10/05 07:32:56;;;;;;;9.23;8.27;;;;;;;;;;5113330;28;20682;-80
2021/10/05 07:35:42;;;;;;;8.60;7.77;;;;;;;;;;5113383;28;20188;-80
2021/10/05 07:38:27;;;;;;;8.13;7.37;;;;;;;;;;5113354;28;20655;-81
2021/10/05 07:41:12;;;;;;;8.67;7.53;;;;;;;;;;5113429;28;20716;-80
2021/10/05 07:43:58;;;;;;;8.17;7.47;;;;;;;;;;5113302;28;20180;-80
2021/10/05 07:46:43;;;;;;;8.30;7.50;;;;;;;;;;5113001;28;20717;-80
2021/10/05 07:49:28;;;;;;;8.20;7.50;;;;;;;;;;5112882;28;20584;-81
2021/10/05 07:52:13;;;;;;;8.80;8.00;;;;;;;;;;5113163;28;20502;-80
2021/10/05 07:54:58;;;;;;;8.63;7.87;;;;;;;;;;5113305;28;20184;-81
2021/10/05 07:57:43;;;;;;;12.27;8.23;;;;;;;;;;5112641;28;20274;-80
2021/10/05 08:00:29;;;;;;;9.00;8.17;;;;;;;;;;5112204;28;20184;-80
2021/10/05 08:03:14;;;;;;;12.03;9.00;;;;;;;;;;5113095;28;20662;-80
2021/10/05 08:05:59;;;;;;;10.20;9.00;;;;;;;;;;5113133;28;20546;-80
2021/10/05 08:08:44;;;;;;;10.30;8.47;;;;;;;;;;5112599;28;20246;-80
2021/10/05 08:11:30;;;;;;;10.90;9.30;;;;;;;;;;5112663;28;20741;-80
2021/10/05 08:14:15;;;;;;;10.97;9.87;;;;;;;;;;5112837;28;20184;-80
2021/10/05 08:17:03;;;;;;;11.83;9.77;;;;;;;;;;5112409;28;20184;-80
2021/10/05 08:19:48;;;;;;;11.10;9.97;;;;;;;;;;5097157;28;20291;-81
2021/10/05 08:22:33;;;;;;;11.23;9.90;;;;;;;;;;5112418;28;20239;-80
2021/10/05 08:25:18;;;;;;;10.63;9.73;;;;;;;;;;5097030;28;20540;-80
2021/10/05 08:28:04;;;;;;;11.37;10.37;;;;;;;;;;5112633;28;20184;-80
2021/10/05 08:30:49;;;;;;;10.67;9.67;;;;;;;;;;5112306;28;20277;-80
2021/10/05 08:33:36;;;;;;;13.73;10.07;;;;;;;;;;5112541;28;20284;-80
2021/10/05 08:36:21;;;;;;;11.63;10.53;;;;;;;;;;5112388;28;20192;-80
2021/10/05 08:39:06;;;;;;;10.93;9.87;;;;;;;;;;5112254;28;20335;-80
2021/10/05 08:41:51;;;;;;;11.80;9.90;;;;;;;;;;5112323;28;20286;-79
2021/10/05 08:44:36;;;;;;;10.73;9.67;;;;;;;;;;5112498;28;20188;-79
2021/10/05 08:47:21;;;;;;;9.90;9.00;;;;;;;;;;5112152;28;20200;-80
2021/10/05 08:50:08;;;;;;;10.27;9.27;;;;;;;;;;5112248;28;20247;-79
2021/10/05 08:52:54;;;;;;;10.37;9.40;;;;;;;;;;5112202;28;20586;-80
2021/10/05 08:55:39;;;;;;;9.37;8.57;;;;;;;;;;5111938;28;20187;-79
2021/10/05 08:58:24;;;;;;;9.50;8.70;;;;;;;;;;5112130;28;20181;-79
2021/10/05 09:01:10;;;;;;;9.57;8.67;;;;;;;;;;5112089;28;20314;-79
2021/10/05 09:03:55;;;;;;;9.60;8.70;;;;;;;;;;5111869;28;20192;-80
2021/10/05 09:06:43;;;;;;;9.87;8.97;;;;;;;;;;5111972;28;20693;-81
2021/10/05 09:09:28;;;;;;;9.80;8.80;;;;;;;;;;5111613;28;20211;-81
2021/10/05 09:12:21;;;;;;;10.20;9.20;;;;;;;;;;5112053;28;20188;-81
2021/10/05 09:15:07;;;;;;;15.53;10.40;;;;;;;;;;5111999;28;20188;-81
2021/10/05 09:17:54;;;;;;;20.77;12.03;;;;;;;;;;5111995;28;20299;-81
2021/10/05 09:20:40;;;;;;;10.97;9.60;;;;;;;;;;5111911;28;20192;-81
2021/10/05 09:23:27;;;;;;;10.30;9.20;;;;;;;;;;5112272;28;20939;-81
2021/10/05 09:26:12;;;;;;;10.60;9.50;;;;;;;;;;5112162;28;20195;-81
2021/10/05 09:29:06;;;;;;;12.60;9.60;;;;;;;;;;5111772;28;20204;-81
2021/10/05 09:31:57;;;;;;;9.70;8.90;;;;;;;;;;5112028;28;20181;-82
2021/10/05 09:34:45;;;;;;;11.83;9.50;;;;;;;;;;5111802;28;20200;-81
2021/10/05 09:37:30;;;;;;;9.53;8.63;;;;;;;;;;5111666;28;20188;-81
2021/10/05 09:40:17;;;;;;;8.97;8.17;;;;;;;;;;5111734;28;20180;-81
2021/10/05 09:43:02;;;;;;;7.83;7.23;;;;;;;;;;5111730;28;20701;-80
2021/10/05 09:45:47;;;;;;;8.67;7.87;;;;;;;;;;5111807;28;20321;-80
2021/10/05 09:48:32;;;;;;;7.70;7.00;;;;;;;;;;5111383;28;20185;-81
2021/10/05 09:51:18;;;;;;;7.83;7.17;;;;;;;;;;5111581;28;20239;-80
2021/10/05 09:54:03;;;;;;;7.07;6.50;;;;;;;;;;5111732;28;20555;-80
2021/10/05 09:56:50;;;;;;;6.60;6.00;;;;;;;;;;5111391;28;20196;-80
2021/10/05 09:59:35;;;;;;;6.00;5.43;;;;;;;;;;5111512;28;20188;-81
2021/10/05 10:02:21;;;;;;;6.10;5.53;;;;;;;;;;5111610;28;20660;-81
2021/10/05 10:05:07;;;;;;;5.60;5.20;;;;;;;;;;5111510;28;20184;-82
2021/10/05 10:07:53;;;;;;;5.50;5.10;;;;;;;;;;5111483;28;20546;-80
2021/10/05 10:10:40;;;;;;;5.70;5.30;;;;;;;;;;5111285;28;20207;-81
2021/10/05 10:13:27;;;;;;;4.87;4.50;;;;;;;;;;5111289;28;20192;-80
2021/10/05 10:16:13;;;;;;;5.00;4.60;;;;;;;;;;5111296;28;20311;-80
2021/10/05 10:18:59;;;;;;;6.90;4.33;;;;;;;;;;5111492;28;20203;-78
2021/10/05 10:21:44;;;;;;;4.27;3.87;;;;;;;;;;5111725;28;20669;-82
2021/10/05 10:24:29;;;;;;;4.13;3.67;;;;;;;;;;5115008;28;20195;-83
2021/10/05 10:27:16;;;;;;;3.70;3.43;;;;;;;;;;5115263;28;20191;-80
2021/10/05 10:30:09;;;;;;;3.67;3.17;;;;;;;;;;5114841;28;20208;-81
2021/10/05 10:32:59;;;;;;;3.80;3.20;;;;;;;;;;5114962;28;20196;-79
2021/10/05 10:35:48;;;;;;;3.43;3.20;;;;;;;;;;5114953;28;20189;-80
2021/10/05 10:38:35;;;;;;;2.87;2.67;;;;;;;;;;5115191;28;20184;-82
2021/10/05 10:41:24;;;;;;;5.33;2.73;;;;;;;;;;5115015;27;20239;-82
2021/10/05 10:44:11;;;;;;;3.10;2.90;;;;;;;;;;5115181;28;20266;-81
2021/10/05 10:47:06;;;;;;;2.80;2.60;;;;;;;;;;5115047;28;20268;-81
2021/10/05 10:49:58;;;;;;;3.13;2.80;;;;;;;;;;5115364;28;20239;-81
2021/10/05 10:52:48;;;;;;;3.10;2.90;;;;;;;;;;5115162;28;20196;-81
2021/10/05 10:55:38;;;;;;;2.80;2.70;;;;;;;;;;5115850;28;20664;-83
2021/10/05 10:58:31;;;;;;;3.10;2.90;;;;;;;;;;5114425;28;20188;-87
2021/10/05 11:01:16;;;;;;;2.67;2.57;;;;;;;;;;5114538;28;20602;-83
2021/10/05 11:04:03;;;;;;;2.60;2.40;;;;;;;;;;5114575;28;20687;-80
2021/10/05 11:06:49;;;;;;;3.20;2.70;;;;;;;;;;5114391;28;20283;-80
2021/10/05 11:09:36;;;;;;;2.63;2.43;;;;;;;;;;5114212;28;20713;-83
2021/10/05 11:12:21;;;;;;;2.50;2.40;;;;;;;;;;5114236;28;20184;-82
2021/10/05 11:15:07;;;;;;;2.60;2.40;;;;;;;;;;5114167;28;20188;-83
2021/10/05 11:17:54;;;;;;;2.80;2.60;;;;;;;;;;5114142;28;20208;-82
2021/10/05 11:20:43;;;;;;;2.53;2.33;;;;;;;;;;5114092;28;20303;-83
2021/10/05 11:23:29;;;;;;;2.23;2.13;;;;;;;;;;5113844;28;20240;-83
2021/10/05 11:26:14;;;;;;;2.10;1.90;;;;;;;;;;5114060;28;20196;-82
2021/10/05 11:29:01;;;;;;;2.53;2.33;;;;;;;;;;5113901;28;20188;-84
2021/10/05 11:31:47;;;;;;;1.30;1.30;;;;;;;;;;5142940;27;20865;-83
2021/10/05 11:34:35;;;;;;;5.03;1.30;;;;;;;;;;5153846;27;20190;-83
2021/10/05 11:37:22;;;;;;;2.67;1.10;;;;;;;;;;5135318;27;20265;-82
2021/10/05 11:40:07;;;;;;;2.27;1.50;;;;;;;;;;5133067;27;20192;-83
2021/10/05 11:42:52;;;;;;;1.50;1.40;;;;;;;;;;5134165;27;20233;-83
2021/10/05 11:45:37;;;;;;;1.27;1.00;;;;;;;;;;5134136;27;20179;-84
2021/10/05 11:48:22;;;;;;;1.90;1.10;;;;;;;;;;5133900;27;20210;-88
2021/10/05 11:51:08;;;;;;;1.00;1.00;;;;;;;;;;5133679;27;20796;-87
2021/10/05 11:53:55;;;;;;;1.07;0.90;;;;;;;;;;5133975;27;20182;-85
2021/10/05 11:56:40;;;;;;;12.77;5.40;;;;;;;;;;5133912;27;20229;-88
2021/10/05 11:59:27;;;;;;;1.23;1.00;;;;;;;;;;5134260;27;20191;-85
2021/10/05 12:02:13;;;;;;;0.80;0.80;;;;;;;;;;5134336;27;20184;-86
2021/10/05 12:05:02;;;;;;;1.77;0.90;;;;;;;;;;5133745;27;20187;-93
2021/10/05 12:07:47;;;;;;;1.23;0.80;;;;;;;;;;5133937;27;20207;-86
2021/10/05 12:10:33;;;;;;;0.77;0.77;;;;;;;;;;5133350;27;20207;-86
2021/10/05 12:13:18;;;;;;;0.77;0.73;;;;;;;;;;5133333;27;20184;-88
2021/10/05 12:16:13;;;;;;;0.80;0.80;;;;;;;;;;5133862;27;20180;-91
2021/10/05 12:18:58;;;;;;;1.30;0.90;;;;;;;;;;5133322;27;20183;-86
2021/10/05 12:21:50;;;;;;;1.50;0.80;;;;;;;;;;5133538;27;20257;-86
2021/10/05 12:24:43;;;;;;;0.60;0.60;;;;;;;;;;5133137;27;20187;-88
2021/10/05 12:27:38;;;;;;;1.27;0.97;;;;;;;;;;5133702;27;20187;-87
2021/10/05 12:30:23;;;;;;;1.07;0.77;;;;;;;;;;5133721;27;20654;-84
2021/10/05 12:33:10;;;;;;;1.90;0.80;;;;;;;;;;5133219;27;20192;-86
2021/10/05 12:35:55;;;;;;;0.50;0.50;;;;;;;;;;5133318;27;20214;-89
2021/10/05 12:38:40;;;;;;;1.10;0.70;;;;;;;;;;5132569;27;20172;-83
2021/10/05 12:41:25;;;;;;;0.70;0.70;;;;;;;;;;5132306;27;20175;-85
2021/10/05 12:44:15;;;;;;;0.70;0.70;;;;;;;;;;5132064;27;20187;-83
2021/10/05 12:47:02;;;;;;;0.70;0.60;;;;;;;;;;5132451;27;20199;-85
2021/10/05 12:49:51;;;;;;;0.60;0.60;;;;;;;;;;5132056;27;20345;-84
2021/10/05 12:52:36;;;;;;;0.60;0.60;;;;;;;;;;5132259;27;20261;-84
2021/10/05 12:55:22;;;;;;;0.60;0.60;;;;;;;;;;5131880;27;20187;-85
2021/10/05 12:58:07;;;;;;;0.60;0.60;;;;;;;;;;5132053;27;20184;-84
2021/10/05 13:00:53;;;;;;;0.88;0.65;;;;;;;;;;5132059;27;20554;-83
2021/10/05 13:03:38;;;;;;;0.77;0.50;;;;;;;;;;5131859;27;20199;-82
2021/10/05 13:06:23;;;;;;;0.60;0.60;;;;;;;;;;5132228;27;20210;-85
2021/10/05 13:09:09;;;;;;;0.60;0.60;;;;;;;;;;5131791;27;20187;-85
2021/10/05 13:11:54;;;;;;;0.80;0.50;;;;;;;;;;5131768;27;20212;-83
2021/10/05 13:14:39;;;;;;;0.70;0.70;;;;;;;;;;5131567;27;20182;-82
2021/10/05 13:17:26;;;;;;;0.52;0.50;;;;;;;;;;5132090;28;20191;-83
2021/10/05 13:20:12;;;;;;;0.50;0.50;;;;;;;;;;5131756;28;20187;-82
2021/10/05 13:22:58;;;;;;;0.50;0.50;;;;;;;;;;5132363;28;20292;-81
2021/10/05 13:25:43;;;;;;;0.65;0.60;;;;;;;;;;5132197;28;20184;-82
2021/10/05 13:28:28;;;;;;;0.70;0.70;;;;;;;;;;5132235;28;20179;-83
2021/10/05 13:31:13;;;;;;;0.40;0.40;;;;;;;;;;5132182;28;20203;-83
2021/10/05 13:33:59;;;;;;;0.60;0.60;;;;;;;;;;5132233;28;20260;-85
2021/10/05 13:36:44;;;;;;;1.58;0.65;;;;;;;;;;5131583;28;20208;-82
2021/10/05 13:39:29;;;;;;;0.60;0.60;;;;;;;;;;5131516;28;20204;-83
2021/10/05 13:42:14;;;;;;;0.60;0.60;;;;;;;;;;5131668;28;20710;-80
2021/10/05 13:44:59;;;;;;;0.40;0.40;;;;;;;;;;5131623;28;20203;-83
2021/10/05 13:47:44;;;;;;;0.50;0.50;;;;;;;;;;5131847;28;20188;-82
2021/10/05 13:50:31;;;;;;;0.57;0.50;;;;;;;;;;5131050;28;20227;-83
2021/10/05 13:53:16;;;;;;;0.68;0.68;;;;;;;;;;5131466;28;20420;-82
2021/10/05 13:56:01;;;;;;;0.40;0.40;;;;;;;;;;5131233;27;20187;-83
2021/10/05 13:58:46;;;;;;;1.35;0.40;;;;;;;;;;5135028;27;20191;-80
2021/10/05 14:01:31;;;;;;;0.40;0.40;;;;;;;;;;5135077;27;20179;-80
2021/10/05 14:04:19;;;;;;;0.80;0.80;;;;;;;;;;5135614;27;20245;-81
2021/10/05 14:07:05;;;;;;;1.40;0.30;;;;;;;;;;5134856;27;20675;-81
2021/10/05 14:09:51;;;;;;;0.50;0.50;;;;;;;;;;5135169;27;20681;-80
2021/10/05 14:12:36;;;;;;;1.88;0.45;;;;;;;;;;5134855;27;20337;-81
2021/10/05 14:15:21;;;;;;;0.50;0.50;;;;;;;;;;5135643;27;20533;-79
2021/10/05 14:18:08;;;;;;;1.23;0.50;;;;;;;;;;5135077;27;20187;-80
2021/10/05 14:20:53;;;;;;;0.50;0.50;;;;;;;;;;5134833;27;20206;-81
2021/10/05 14:23:39;;;;;;;0.75;0.75;;;;;;;;;;5134979;27;20227;-82
2021/10/05 14:26:25;;;;;;;0.65;0.60;;;;;;;;;;5134709;27;20179;-80
2021/10/05 14:29:10;;;;;;;1.45;1.05;;;;;;;;;;5134945;27;20183;-80
2021/10/05 14:31:55;;;;;;;0.80;0.80;;;;;;;;;;5135481;27;20578;-82
2021/10/05 14:34:40;;;;;;;0.88;0.70;;;;;;;;;;5135458;27;20603;-80
2021/10/05 14:37:25;;;;;;;0.77;0.77;;;;;;;;;;5135390;27;20317;-83
2021/10/05 14:40:11;;;;;;;1.00;1.00;;;;;;;;;;5135338;27;20202;-80
2021/10/05 14:42:57;;;;;;;0.77;0.77;;;;;;;;;;5135187;27;20184;-80
2021/10/05 14:45:42;;;;;;;0.80;0.80;;;;;;;;;;5135176;27;20194;-81
2021/10/05 14:48:27;;;;;;;0.57;0.57;;;;;;;;;;5134839;27;20260;-80
2021/10/05 14:51:12;;;;;;;0.50;0.50;;;;;;;;;;5134247;27;21051;-79
2021/10/05 14:53:57;;;;;;;0.63;0.60;;;;;;;;;;5134594;27;20557;-79
2021/10/05 14:56:43;;;;;;;0.52;0.52;;;;;;;;;;5134049;27;20664;-80
2021/10/05 14:59:29;;;;;;;0.50;0.50;;;;;;;;;;5114396;28;20184;-80
2021/10/05 15:02:14;;;;;;;0.85;0.73;;;;;;;;;;5114114;28;20212;-81
2021/10/05 15:04:59;;;;;;;0.70;0.70;;;;;;;;;;5113886;28;20206;-81
2021/10/05 15:07:45;;;;;;;0.60;0.60;;;;;;;;;;5114292;28;20184;-82
2021/10/05 15:10:30;;;;;;;0.75;0.70;;;;;;;;;;5114091;28;20183;-79
2021/10/05 15:13:16;;;;;;;2.40;0.80;;;;;;;;;;5113828;28;20212;-79
2021/10/05 15:16:02;;;;;;;2.27;0.67;;;;;;;;;;5113964;28;20188;-79
2021/10/05 15:18:47;;;;;;;0.55;0.50;;;;;;;;;;5113894;28;20546;-81
2021/10/05 15:21:33;;;;;;;1.10;0.80;;;;;;;;;;5113884;28;20190;-80
2021/10/05 15:24:18;;;;;;;0.87;0.87;;;;;;;;;;5113635;28;20235;-79
2021/10/05 15:27:03;;;;;;;1.83;0.80;;;;;;;;;;5113928;28;20311;-80
2021/10/05 15:29:51;;;;;;;0.70;0.70;;;;;;;;;;5124561;27;20207;-80
2021/10/05 15:32:38;;;;;;;0.63;0.63;;;;;;;;;;5133863;27;20596;-82
2021/10/05 15:35:24;;;;;;;0.70;0.70;;;;;;;;;;5133297;27;20276;-79
2021/10/05 15:38:09;;;;;;;0.80;0.80;;;;;;;;;;5133743;27;20188;-80
2021/10/05 15:40:54;;;;;;;0.60;0.60;;;;;;;;;;5133346;27;20313;-80
2021/10/05 15:43:39;;;;;;;0.80;0.80;;;;;;;;;;5133382;27;20225;-79
2021/10/05 15:46:26;;;;;;;1.27;0.90;;;;;;;;;;5133185;27;20221;-80
2021/10/05 15:49:11;;;;;;;0.80;0.80;;;;;;;;;;5133521;27;20222;-80
2021/10/05 15:52:04;;;;;;;0.90;0.90;;;;;;;;;;5118976;27;20200;-80
2021/10/05 15:54:49;;;;;;;3.60;0.80;;;;;;;;;;5112760;28;20208;-81
2021/10/05 15:57:34;;;;;;;0.80;0.80;;;;;;;;;;5112307;28;20185;-83
2021/10/05 16:00:19;;;;;;;3.20;1.00;;;;;;;;;;5131826;27;20188;-81
2021/10/05 16:03:06;;;;;;;0.50;0.50;;;;;;;;;;5133049;27;20593;-81
2021/10/05 16:05:52;;;;;;;1.00;1.00;;;;;;;;;;5132794;27;20261;-87
2021/10/05 16:08:37;;;;;;;1.00;1.00;;;;;;;;;;5133086;27;20191;-83
2021/10/05 16:11:23;;;;;;;2.10;0.90;;;;;;;;;;5132882;27;20430;-82
2021/10/05 16:14:09;;;;;;;1.30;0.90;;;;;;;;;;5133018;27;20203;-81
2021/10/05 16:16:54;;;;;;;4.90;1.00;;;;;;;;;;5132799;27;20676;-83
2021/10/05 16:19:41;;;;;;;0.90;0.90;;;;;;;;;;5132430;27;20180;-84
2021/10/05 16:22:26;;;;;;;0.80;0.80;;;;;;;;;;5132501;27;20227;-83
2021/10/05 16:25:11;;;;;;;0.90;0.90;;;;;;;;;;5132529;27;20584;-83
2021/10/05 16:27:56;;;;;;;1.67;1.53;;;;;;;;;;5132692;27;20542;-83
2021/10/05 16:30:41;;;;;;;1.20;1.10;;;;;;;;;;5132253;27;20277;-82
2021/10/05 16:33:26;;;;;;;0.80;0.80;;;;;;;;;;5132531;27;20253;-83